<?xml version="1.0" encoding="UTF-8" standalone="no" ?>
<gpx xmlns="http://www.topografix.com/GPX/1/1" xmlns:xsi="http://www.w3.org/2001/XMLSchema-instance" xsi:schemaLocation="http://www.topografix.com/GPX/1/1 http://www.topografix.com/GPX/1/1/gpx.xsd" version="1.1" creator="VisuGPX - https://www.visugpx.com">
  <metadata>
    <name>gr70 etape4</name>
    <desc><![CDATA[4 première étape]]></desc>
  </metadata>
  <trk>
    <name><![CDATA[gr70 etape4_5]]></name>
    <trkseg>
      <trkpt lat="44.64609" lon="3.85369">
        <ele>1192.994</ele>
        <time>2016-06-08T00:45:13Z</time>
      </trkpt>
      <trkpt lat="44.64544" lon="3.85514">
        <ele>1198.172</ele>
        <time>2016-06-08T00:45:33Z</time>
      </trkpt>
      <trkpt lat="44.64501" lon="3.85558">
        <ele>1203.98</ele>
        <time>2016-06-08T00:45:53Z</time>
      </trkpt>
      <trkpt lat="44.64458" lon="3.85578">
        <ele>1208.472</ele>
        <time>2016-06-08T00:46:13Z</time>
      </trkpt>
      <trkpt lat="44.64416" lon="3.85605">
        <ele>1211.192</ele>
        <time>2016-06-08T00:46:33Z</time>
      </trkpt>
      <trkpt lat="44.64341" lon="3.85647">
        <ele>1212.113</ele>
        <time>2016-06-08T00:46:53Z</time>
      </trkpt>
      <trkpt lat="44.6432" lon="3.85666">
        <ele>1211.584</ele>
        <time>2016-06-08T00:47:13Z</time>
      </trkpt>
      <trkpt lat="44.64262" lon="3.85677">
        <ele>1211.007</ele>
        <time>2016-06-08T00:47:33Z</time>
      </trkpt>
      <trkpt lat="44.64236" lon="3.85694">
        <ele>1211.017</ele>
        <time>2016-06-08T00:47:53Z</time>
      </trkpt>
      <trkpt lat="44.64269" lon="3.85854">
        <ele>1211.908</ele>
        <time>2016-06-08T00:48:13Z</time>
      </trkpt>
      <trkpt lat="44.64269" lon="3.85854">
        <ele>1211.981</ele>
        <time>2016-06-08T00:48:33Z</time>
      </trkpt>
      <trkpt lat="44.64326" lon="3.85964">
        <ele>1222.442</ele>
        <time>2016-06-08T00:48:53Z</time>
      </trkpt>
      <trkpt lat="44.64385" lon="3.85958">
        <ele>1224.493</ele>
        <time>2016-06-08T00:49:13Z</time>
      </trkpt>
      <trkpt lat="44.64443" lon="3.8596">
        <ele>1224.791</ele>
        <time>2016-06-08T00:49:33Z</time>
      </trkpt>
      <trkpt lat="44.64505" lon="3.85991">
        <ele>1228.569</ele>
        <time>2016-06-08T00:49:53Z</time>
      </trkpt>
      <trkpt lat="44.64531" lon="3.86023">
        <ele>1230.561</ele>
        <time>2016-06-08T00:50:13Z</time>
      </trkpt>
      <trkpt lat="44.64545" lon="3.86048">
        <ele>1232.151</ele>
        <time>2016-06-08T00:50:33Z</time>
      </trkpt>
      <trkpt lat="44.64576" lon="3.86077">
        <ele>1232.982</ele>
        <time>2016-06-08T00:50:53Z</time>
      </trkpt>
      <trkpt lat="44.64709" lon="3.86134">
        <ele>1234.978</ele>
        <time>2016-06-08T00:51:13Z</time>
      </trkpt>
      <trkpt lat="44.64818" lon="3.8618">
        <ele>1226.333</ele>
        <time>2016-06-08T00:51:33Z</time>
      </trkpt>
      <trkpt lat="44.64882" lon="3.86246">
        <ele>1223.526</ele>
        <time>2016-06-08T00:51:53Z</time>
      </trkpt>
      <trkpt lat="44.64921" lon="3.86322">
        <ele>1224.608</ele>
        <time>2016-06-08T00:52:13Z</time>
      </trkpt>
      <trkpt lat="44.64947" lon="3.86385">
        <ele>1227.57</ele>
        <time>2016-06-08T00:52:33Z</time>
      </trkpt>
      <trkpt lat="44.64954" lon="3.86446">
        <ele>1227.741</ele>
        <time>2016-06-08T00:52:53Z</time>
      </trkpt>
      <trkpt lat="44.6496" lon="3.86573">
        <ele>1227.392</ele>
        <time>2016-06-08T00:53:13Z</time>
      </trkpt>
      <trkpt lat="44.64959" lon="3.86725">
        <ele>1233.27</ele>
        <time>2016-06-08T00:53:33Z</time>
      </trkpt>
      <trkpt lat="44.64937" lon="3.86812">
        <ele>1233.468</ele>
        <time>2016-06-08T00:53:53Z</time>
      </trkpt>
      <trkpt lat="44.64923" lon="3.86906">
        <ele>1235.08</ele>
        <time>2016-06-08T00:54:13Z</time>
      </trkpt>
      <trkpt lat="44.64918" lon="3.86998">
        <ele>1235.92</ele>
        <time>2016-06-08T00:54:33Z</time>
      </trkpt>
      <trkpt lat="44.64922" lon="3.87081">
        <ele>1231.791</ele>
        <time>2016-06-08T00:54:53Z</time>
      </trkpt>
      <trkpt lat="44.64923" lon="3.87226">
        <ele>1229.861</ele>
        <time>2016-06-08T00:55:13Z</time>
      </trkpt>
      <trkpt lat="44.64898" lon="3.87301">
        <ele>1229.521</ele>
        <time>2016-06-08T00:55:33Z</time>
      </trkpt>
      <trkpt lat="44.6493" lon="3.87567">
        <ele>1219.813</ele>
        <time>2016-06-08T00:55:53Z</time>
      </trkpt>
      <trkpt lat="44.64951" lon="3.8758">
        <ele>1216.508</ele>
        <time>2016-06-08T00:56:13Z</time>
      </trkpt>
      <trkpt lat="44.64986" lon="3.8756">
        <ele>1215.659</ele>
        <time>2016-06-08T00:56:33Z</time>
      </trkpt>
      <trkpt lat="44.65025" lon="3.87639">
        <ele>1209.12</ele>
        <time>2016-06-08T00:56:53Z</time>
      </trkpt>
      <trkpt lat="44.65054" lon="3.87661">
        <ele>1204.521</ele>
        <time>2016-06-08T00:57:13Z</time>
      </trkpt>
      <trkpt lat="44.65095" lon="3.87724">
        <ele>1197.929</ele>
        <time>2016-06-08T00:57:33Z</time>
      </trkpt>
      <trkpt lat="44.65115" lon="3.87768">
        <ele>1189.127</ele>
        <time>2016-06-08T00:57:53Z</time>
      </trkpt>
      <trkpt lat="44.65171" lon="3.87766">
        <ele>1182.789</ele>
        <time>2016-06-08T00:58:13Z</time>
      </trkpt>
      <trkpt lat="44.65217" lon="3.87724">
        <ele>1180.029</ele>
        <time>2016-06-08T00:58:33Z</time>
      </trkpt>
      <trkpt lat="44.65199" lon="3.87829">
        <ele>1164.02</ele>
        <time>2016-06-08T00:58:53Z</time>
      </trkpt>
      <trkpt lat="44.65168" lon="3.87906">
        <ele>1158.916</ele>
        <time>2016-06-08T00:59:13Z</time>
      </trkpt>
      <trkpt lat="44.65149" lon="3.87929">
        <ele>1156.376</ele>
        <time>2016-06-08T00:59:33Z</time>
      </trkpt>
      <trkpt lat="44.65124" lon="3.87971">
        <ele>1150.213</ele>
        <time>2016-06-08T00:59:53Z</time>
      </trkpt>
      <trkpt lat="44.65094" lon="3.8812">
        <ele>1134.008</ele>
        <time>2016-06-08T01:00:13Z</time>
      </trkpt>
      <trkpt lat="44.65115" lon="3.88252">
        <ele>1118.434</ele>
        <time>2016-06-08T01:00:33Z</time>
      </trkpt>
      <trkpt lat="44.65117" lon="3.88339">
        <ele>1111.845</ele>
        <time>2016-06-08T01:00:53Z</time>
      </trkpt>
      <trkpt lat="44.65096" lon="3.88513">
        <ele>1093.726</ele>
        <time>2016-06-08T01:01:13Z</time>
      </trkpt>
      <trkpt lat="44.65075" lon="3.88603">
        <ele>1089.654</ele>
        <time>2016-06-08T01:01:33Z</time>
      </trkpt>
      <trkpt lat="44.65033" lon="3.88712">
        <ele>1077.652</ele>
        <time>2016-06-08T01:01:53Z</time>
      </trkpt>
      <trkpt lat="44.651" lon="3.88768">
        <ele>1059.074</ele>
        <time>2016-06-08T01:02:13Z</time>
      </trkpt>
      <trkpt lat="44.65169" lon="3.88814">
        <ele>1051.314</ele>
        <time>2016-06-08T01:02:33Z</time>
      </trkpt>
      <trkpt lat="44.65179" lon="3.88889">
        <ele>1048.255</ele>
        <time>2016-06-08T01:02:53Z</time>
      </trkpt>
      <trkpt lat="44.65162" lon="3.88945">
        <ele>1041.878</ele>
        <time>2016-06-08T01:03:13Z</time>
      </trkpt>
      <trkpt lat="44.65162" lon="3.88965">
        <ele>1037.333</ele>
        <time>2016-06-08T01:03:33Z</time>
      </trkpt>
      <trkpt lat="44.65099" lon="3.88976">
        <ele>1026.026</ele>
        <time>2016-06-08T01:03:53Z</time>
      </trkpt>
      <trkpt lat="44.65051" lon="3.88966">
        <ele>1023.308</ele>
        <time>2016-06-08T01:04:13Z</time>
      </trkpt>
      <trkpt lat="44.65021" lon="3.88992">
        <ele>1017.69</ele>
        <time>2016-06-08T01:04:33Z</time>
      </trkpt>
      <trkpt lat="44.64992" lon="3.88988">
        <ele>1014.951</ele>
        <time>2016-06-08T01:04:53Z</time>
      </trkpt>
      <trkpt lat="44.64981" lon="3.88995">
        <ele>1012.652</ele>
        <time>2016-06-08T01:05:13Z</time>
      </trkpt>
      <trkpt lat="44.64994" lon="3.88999">
        <ele>1013.58</ele>
        <time>2016-06-08T01:05:33Z</time>
      </trkpt>
      <trkpt lat="44.64999" lon="3.89008">
        <ele>1012.578</ele>
        <time>2016-06-08T01:05:53Z</time>
      </trkpt>
      <trkpt lat="44.64973" lon="3.8901">
        <ele>1009.78</ele>
        <time>2016-06-08T01:06:13Z</time>
      </trkpt>
      <trkpt lat="44.64928" lon="3.89023">
        <ele>1004.34</ele>
        <time>2016-06-08T01:06:33Z</time>
      </trkpt>
      <trkpt lat="44.64925" lon="3.89036">
        <ele>1002.981</ele>
        <time>2016-06-08T01:06:53Z</time>
      </trkpt>
      <trkpt lat="44.64945" lon="3.89072">
        <ele>1000.884</ele>
        <time>2016-06-08T01:07:13Z</time>
      </trkpt>
      <trkpt lat="44.64982" lon="3.89092">
        <ele>1002.007</ele>
        <time>2016-06-08T01:07:33Z</time>
      </trkpt>
      <trkpt lat="44.65034" lon="3.89094">
        <ele>1003.317</ele>
        <time>2016-06-08T01:07:53Z</time>
      </trkpt>
      <trkpt lat="44.65085" lon="3.89067">
        <ele>1004.908</ele>
        <time>2016-06-08T01:08:13Z</time>
      </trkpt>
      <trkpt lat="44.65124" lon="3.89073">
        <ele>1005.091</ele>
        <time>2016-06-08T01:08:33Z</time>
      </trkpt>
      <trkpt lat="44.65149" lon="3.89073">
        <ele>1003.942</ele>
        <time>2016-06-08T01:08:53Z</time>
      </trkpt>
    </trkseg>
  </trk>
</gpx>